createdAt,value
2018-10-11T00:00:20.072Z,68.11
2018-10-11T00:01:19.976Z,68.24
2018-10-11T00:02:20.099Z,68.14
2018-10-11T00:03:19.994Z,68.41
2018-10-11T00:04:19.981Z,68.27
2018-10-11T00:05:20.061Z,68.21
2018-10-11T00:06:20.001Z,67.99
2018-10-11T00:07:20.080Z,68.49
2018-10-11T00:08:19.973Z,68.31
2018-10-11T00:09:20.220Z,69.08
2018-10-11T00:10:19.944Z,69.1
2018-10-11T00:11:19.934Z,69.11
2018-10-11T00:12:19.978Z,68.79
2018-10-11T00:13:20.033Z,68.63
2018-10-11T00:14:19.949Z,68.83
2018-10-11T00:15:20.327Z,69.03
2018-10-11T00:16:20.366Z,68.99
2018-10-11T00:17:19.977Z,68.93
2018-10-11T00:18:19.934Z,69.21
2018-10-11T00:19:19.976Z,69.25
2018-10-11T00:20:19.992Z,68.79
2018-10-11T00:21:19.964Z,69.08
2018-10-11T00:22:19.938Z,68.89
2018-10-11T00:23:19.937Z,69.13
2018-10-11T00:24:19.917Z,69.29
2018-10-11T00:25:19.996Z,69.31
2018-10-11T00:26:19.973Z,69.22
2018-10-11T00:27:19.953Z,69.31
2018-10-11T00:28:19.926Z,69.61
2018-10-11T00:29:19.982Z,69.21
2018-10-11T00:30:19.925Z,69.48
2018-10-11T00:31:19.980Z,69.22
2018-10-11T00:32:19.956Z,69.74
2018-10-11T00:33:19.937Z,69.46
2018-10-11T00:34:19.955Z,69.61
2018-10-11T00:35:19.948Z,69.63
2018-10-11T00:36:20.088Z,69.34
2018-10-11T00:37:20.001Z,69.57
2018-10-11T00:38:20.350Z,69.9
2018-10-11T00:39:20.151Z,69.78
2018-10-11T00:40:19.918Z,69.76
2018-10-11T00:41:19.912Z,69.96
2018-10-11T00:42:20.144Z,69.85
2018-10-11T00:43:23.091Z,70.03
2018-10-11T00:44:19.957Z,69.83
2018-10-11T00:45:19.916Z,70.32
2018-10-11T00:46:20.540Z,70.17
2018-10-11T00:47:19.991Z,70.32
2018-10-11T00:48:20.079Z,70.88
2018-10-11T00:49:20.133Z,70.74
2018-10-11T00:50:19.916Z,70.91
2018-10-11T00:51:20.139Z,70.94
2018-10-11T00:52:19.964Z,71.43
2018-10-11T00:53:20.057Z,71.03
2018-10-11T00:54:20.013Z,71.21
2018-10-11T00:55:20.092Z,71.26
2018-10-11T00:56:20.290Z,71.5
2018-10-11T00:57:19.929Z,72
2018-10-11T00:58:19.958Z,71.71
2018-10-11T00:59:19.965Z,71.52
2018-10-11T01:00:19.996Z,71.4
2018-10-11T01:01:19.864Z,71.2
2018-10-11T01:02:20.008Z,71.33
2018-10-11T01:03:19.906Z,71.58
2018-10-11T01:04:19.985Z,71.55
2018-10-11T01:05:19.874Z,71.16
2018-10-11T01:06:20.097Z,71.26
2018-10-11T01:07:20.019Z,71.01
2018-10-11T01:08:19.916Z,71.1
2018-10-11T01:09:20.274Z,71.06
2018-10-11T01:10:19.953Z,72.08
2018-10-11T01:11:20.122Z,72.1
2018-10-11T01:12:19.956Z,71.71
2018-10-11T01:13:20.347Z,71.44
2018-10-11T01:14:19.854Z,71.8
2018-10-11T01:15:19.900Z,71.85
2018-10-11T01:16:20.212Z,72.32
2018-10-11T01:17:19.955Z,72.47
2018-10-11T01:18:19.860Z,72.38
2018-10-11T01:19:19.868Z,72.11
2018-10-11T01:20:20.063Z,72.15
2018-10-11T01:21:20.025Z,71.86
2018-10-11T01:22:19.996Z,71.73
2018-10-11T01:23:20.245Z,71.49
2018-10-11T01:24:19.944Z,72.26
2018-10-11T01:25:19.961Z,72.34
2018-10-11T01:26:19.856Z,72.14
2018-10-11T01:27:19.961Z,72.15
2018-10-11T01:28:20.069Z,71.78
2018-10-11T01:29:20.079Z,72.15
2018-10-11T01:30:19.970Z,72.09
2018-10-11T01:31:19.906Z,71.9
2018-10-11T01:32:20.602Z,71.82
2018-10-11T01:33:19.951Z,72.56
2018-10-11T01:34:19.944Z,72.54
2018-10-11T01:35:19.987Z,72.05
2018-10-11T01:36:20.258Z,72.3
2018-10-11T01:37:20.216Z,72.39
2018-10-11T01:38:19.986Z,72.53
2018-10-11T01:39:19.882Z,72.54
2018-10-11T01:40:19.889Z,72.41
2018-10-11T01:41:19.952Z,72.49
2018-10-11T01:42:19.863Z,72.55
2018-10-11T01:43:19.934Z,72.18
2018-10-11T01:44:19.917Z,72.44
2018-10-11T01:45:19.885Z,72.6
2018-10-11T01:46:19.901Z,72.53
2018-10-11T01:47:19.896Z,72.28
2018-10-11T01:48:19.872Z,72.13
2018-10-11T01:49:19.873Z,72.48
2018-10-11T01:50:19.877Z,72.41
2018-10-11T01:51:20.213Z,72.66
2018-10-11T01:52:19.856Z,72.79
2018-10-11T01:53:19.810Z,72.66
2018-10-11T01:54:19.835Z,72.6
2018-10-11T01:55:19.877Z,72.9
2018-10-11T01:56:19.822Z,72.6
2018-10-11T01:57:19.835Z,72.8
2018-10-11T01:58:19.914Z,73.04
2018-10-11T01:59:19.796Z,72.77
2018-10-11T02:00:19.803Z,73.13
2018-10-11T02:01:19.969Z,72.91
2018-10-11T02:02:19.816Z,72.85
2018-10-11T02:03:19.822Z,73.1
2018-10-11T02:04:20.032Z,73.33
2018-10-11T02:05:19.979Z,73.37
2018-10-11T02:06:19.847Z,72.98
2018-10-11T02:07:19.917Z,72.74
2018-10-11T02:08:20.230Z,72.54
2018-10-11T02:09:20.684Z,72.75
2018-10-11T02:10:19.975Z,72.98
2018-10-11T02:11:19.924Z,73.11
2018-10-11T02:12:20.169Z,72.92
2018-10-11T02:13:20.013Z,73.01
2018-10-11T02:14:20.208Z,73.04
2018-10-11T02:15:19.905Z,73.2
2018-10-11T02:16:19.791Z,73.18
2018-10-11T02:17:19.960Z,73.04
2018-10-11T02:18:20.084Z,73.41
2018-10-11T02:19:20.463Z,73.02
2018-10-11T02:20:19.929Z,72.95
2018-10-11T02:21:20.066Z,73.06
2018-10-11T02:22:19.846Z,73.33
2018-10-11T02:23:19.787Z,73.32
2018-10-11T02:24:20.166Z,73.5
2018-10-11T02:25:19.889Z,73.32
2018-10-11T02:26:19.792Z,73
2018-10-11T02:27:19.945Z,72.85
2018-10-11T02:28:19.915Z,72.86
2018-10-11T02:29:19.951Z,73.1
2018-10-11T02:30:19.772Z,73.28
2018-10-11T02:31:20.011Z,73.3
2018-10-11T02:32:19.778Z,73.35
2018-10-11T02:33:19.841Z,73.27
2018-10-11T02:34:19.788Z,73.03
2018-10-11T02:35:19.885Z,73.58
2018-10-11T02:36:19.807Z,73.29
2018-10-11T02:37:20.007Z,73.87
2018-10-11T02:38:19.923Z,73.42
2018-10-11T02:39:19.955Z,73.59
2018-10-11T02:40:19.925Z,73.61
2018-10-11T02:41:19.943Z,73.39
2018-10-11T02:42:19.915Z,73.46
2018-10-11T02:43:19.843Z,73.61
2018-10-11T02:44:20.052Z,73.54
2018-10-11T02:45:19.899Z,73.54
2018-10-11T02:46:19.750Z,73.27
2018-10-11T02:47:20.000Z,73.63
2018-10-11T02:48:20.514Z,73.44
2018-10-11T02:49:19.849Z,73.44
2018-10-11T02:50:19.740Z,73.5
2018-10-11T02:51:19.765Z,73.56
2018-10-11T02:52:20.008Z,73.24
2018-10-11T02:53:19.825Z,73.33
2018-10-11T02:54:19.934Z,73.6
2018-10-11T02:55:19.892Z,73.42
2018-10-11T02:56:19.727Z,73.31
2018-10-11T02:57:19.862Z,73.34
2018-10-11T02:58:19.840Z,73.37
2018-10-11T02:59:19.723Z,73.53
2018-10-11T03:00:19.808Z,74.08
2018-10-11T03:01:19.777Z,74.05
2018-10-11T03:02:19.941Z,73.51
2018-10-11T03:03:19.879Z,73.66
2018-10-11T03:04:19.952Z,73.77
2018-10-11T03:05:19.895Z,73.73
2018-10-11T03:06:19.847Z,73.9
2018-10-11T03:07:19.879Z,73.69
2018-10-11T03:08:19.918Z,73.93
2018-10-11T03:09:19.819Z,73.97
2018-10-11T03:10:19.713Z,74.36
2018-10-11T03:11:19.882Z,74.6
2018-10-11T03:12:19.739Z,74.57
2018-10-11T03:13:19.765Z,74.29
2018-10-11T03:14:19.788Z,74.54
2018-10-11T03:15:19.700Z,75.13
2018-10-11T03:16:19.755Z,74.74
2018-10-11T03:17:19.741Z,75.03
2018-10-11T03:18:19.763Z,75.13
2018-10-11T03:19:20.027Z,75.11
2018-10-11T03:20:19.734Z,75.42
2018-10-11T03:21:19.918Z,75.52
2018-10-11T03:22:19.876Z,75.25
2018-10-11T03:23:19.705Z,75.4
2018-10-11T03:24:19.809Z,75.04
2018-10-11T03:25:19.696Z,75
2018-10-11T03:26:19.733Z,75.44
2018-10-11T03:27:19.706Z,75.65
2018-10-11T03:28:19.752Z,75.62
2018-10-11T03:29:19.875Z,75.41
2018-10-11T03:30:19.866Z,75.22
2018-10-11T03:31:20.074Z,75.6
2018-10-11T03:32:19.900Z,75.84
2018-10-11T03:33:19.802Z,75.47
2018-10-11T03:34:19.994Z,76
2018-10-11T03:35:20.061Z,75.82
2018-10-11T03:36:19.723Z,75.98
2018-10-11T03:37:19.728Z,75.52
2018-10-11T03:38:20.117Z,75.55
2018-10-11T03:39:19.868Z,75.23
2018-10-11T03:40:19.724Z,75.16
2018-10-11T03:41:19.675Z,75.22
2018-10-11T03:42:19.865Z,75.72
2018-10-11T03:43:19.820Z,76.27
2018-10-11T03:44:19.672Z,75.75
2018-10-11T03:45:19.701Z,76.26
2018-10-11T03:46:19.676Z,76.19
2018-10-11T03:47:19.968Z,75.97
2018-10-11T03:48:19.660Z,75.96
2018-10-11T03:49:19.661Z,75.51
2018-10-11T03:50:19.913Z,76.34
2018-10-11T03:51:19.809Z,76.53
2018-10-11T03:52:19.783Z,76.19
2018-10-11T03:53:19.913Z,76.61
2018-10-11T03:54:20.021Z,76.13
2018-10-11T03:55:19.712Z,76.48
2018-10-11T03:56:19.752Z,76.76
2018-10-11T03:57:19.823Z,77.15
2018-10-11T03:58:19.885Z,77.49
2018-10-11T03:59:19.847Z,76.98
2018-10-11T04:00:19.648Z,76.85
2018-10-11T04:01:19.677Z,76.69
2018-10-11T04:02:19.706Z,76.79
2018-10-11T04:03:19.901Z,77.16
2018-10-11T04:04:19.984Z,77.11
2018-10-11T04:05:19.650Z,77.42
2018-10-11T04:06:19.707Z,77.66
2018-10-11T04:07:19.676Z,77.7
2018-10-11T04:08:20.272Z,77.75
2018-10-11T04:09:19.680Z,77.3
2018-10-11T04:10:19.754Z,77.45
2018-10-11T04:11:19.667Z,77.77
2018-10-11T04:12:19.735Z,77.92
2018-10-11T04:13:19.808Z,77.77
2018-10-11T04:14:19.686Z,77.73
2018-10-11T04:15:20.104Z,77.73
2018-10-11T04:16:19.666Z,78.09
2018-10-11T04:17:19.767Z,78.49
2018-10-11T04:18:19.643Z,79.02
2018-10-11T04:19:19.895Z,79.39
2018-10-11T04:20:19.716Z,79.87
2018-10-11T04:21:19.736Z,79.88
2018-10-11T04:22:19.903Z,79.86
2018-10-11T04:23:19.627Z,79.82
2018-10-11T04:24:19.756Z,79.42
2018-10-11T04:25:19.619Z,79.05
2018-10-11T04:26:19.711Z,78.87
2018-10-11T04:27:19.616Z,78.98
2018-10-11T04:28:19.807Z,79.18
2018-10-11T04:29:19.646Z,79.18
2018-10-11T04:30:19.725Z,79.03
2018-10-11T04:31:19.702Z,78.57
2018-10-11T04:32:19.646Z,79.44
2018-10-11T04:33:19.875Z,79.5
2018-10-11T04:34:19.592Z,78.79
2018-10-11T04:35:19.657Z,78.3
2018-10-11T04:36:20.001Z,78.96
2018-10-11T04:37:19.627Z,78.77
2018-10-11T04:38:19.675Z,78.73
2018-10-11T04:39:19.643Z,79.29
2018-10-11T04:40:19.615Z,79.33
2018-10-11T04:41:19.603Z,79.53
2018-10-11T04:42:19.734Z,79.45
2018-10-11T04:43:19.628Z,80.01
2018-10-11T04:44:19.580Z,80.47
2018-10-11T04:45:19.589Z,80.67
2018-10-11T04:46:19.596Z,80.51
2018-10-11T04:47:19.581Z,80.85
2018-10-11T04:48:19.569Z,80.99
2018-10-11T04:49:19.578Z,80.68
2018-10-11T04:50:19.579Z,80.54
2018-10-11T04:51:19.604Z,80.71
2018-10-11T04:52:19.908Z,80.7
2018-10-11T04:53:19.582Z,80.91
2018-10-11T04:54:19.656Z,80.32
2018-10-11T04:55:19.575Z,81.07
2018-10-11T04:56:19.599Z,81.28
2018-10-11T04:57:19.689Z,80.66
2018-10-11T04:58:19.783Z,80.7
2018-10-11T04:59:19.660Z,81
2018-10-11T05:00:19.630Z,81.22
2018-10-11T05:01:19.658Z,81.13
2018-10-11T05:02:19.742Z,81.14
2018-10-11T05:03:19.890Z,80.72
2018-10-11T05:04:20.159Z,81.07
2018-10-11T05:05:19.849Z,80.99
2018-10-11T05:06:19.786Z,80.72
2018-10-11T05:07:22.645Z,81.07
2018-10-11T05:08:19.569Z,81.09
2018-10-11T05:09:19.829Z,80.56
2018-10-11T05:10:19.552Z,80.91
2018-10-11T05:11:19.669Z,80.83
2018-10-11T05:12:19.646Z,80.59
2018-10-11T05:13:19.878Z,80.67
2018-10-11T05:14:19.853Z,80.2
2018-10-11T05:15:20.273Z,80.89
2018-10-11T05:16:19.641Z,80.18
2018-10-11T05:17:19.682Z,80.57
2018-10-11T05:18:19.666Z,80.44
2018-10-11T05:19:19.569Z,79.98
2018-10-11T05:20:19.797Z,80.67
2018-10-11T05:21:19.707Z,80.24
2018-10-11T05:22:19.720Z,79.99
2018-10-11T05:23:19.647Z,80.04
2018-10-11T05:24:19.578Z,80.07
2018-10-11T05:25:19.626Z,80.59
2018-10-11T05:26:19.559Z,80.77
2018-10-11T05:27:19.727Z,80.64
2018-10-11T05:28:19.669Z,80.45
2018-10-11T05:29:19.594Z,80.3
2018-10-11T05:30:19.754Z,80.3
2018-10-11T05:31:19.550Z,80.72
2018-10-11T05:32:19.683Z,80.48
2018-10-11T05:33:19.621Z,80.82
2018-10-11T05:34:19.622Z,80.27
2018-10-11T05:35:19.829Z,80.17
2018-10-11T05:36:19.538Z,80.2
2018-10-11T05:37:19.575Z,80
2018-10-11T05:38:19.763Z,80.19
2018-10-11T05:39:19.707Z,80.42
2018-10-11T05:40:19.540Z,80.32
2018-10-11T05:41:19.531Z,80.39
2018-10-11T05:42:19.601Z,80.13
2018-10-11T05:43:19.573Z,79.95
2018-10-11T05:44:19.605Z,80.46
2018-10-11T05:45:19.576Z,80.06
2018-10-11T05:46:19.669Z,80.02
2018-10-11T05:47:19.558Z,79.85
2018-10-11T05:48:19.657Z,79.75
2018-10-11T05:49:19.703Z,80.05
2018-10-11T05:50:19.563Z,80.4
2018-10-11T05:51:19.498Z,80.37
2018-10-11T05:52:19.516Z,80.37
2018-10-11T05:53:19.601Z,80.32
2018-10-11T05:54:19.633Z,80.19
2018-10-11T05:55:19.545Z,80.2
2018-10-11T05:56:19.869Z,80.29
2018-10-11T05:57:19.473Z,80.01
2018-10-11T05:58:19.643Z,80.21
2018-10-11T05:59:19.504Z,80.4
2018-10-11T06:00:19.589Z,80.37
2018-10-11T06:01:19.476Z,80.54
2018-10-11T06:02:19.501Z,80.7
2018-10-11T06:03:19.489Z,80.71
2018-10-11T06:04:19.554Z,80.67
2018-10-11T06:05:19.488Z,80.64
2018-10-11T06:06:19.489Z,80.92
2018-10-11T06:07:19.829Z,80.82
2018-10-11T06:08:19.548Z,80.94
2018-10-11T06:09:19.474Z,80.77
2018-10-11T06:10:19.478Z,80.81
2018-10-11T06:11:19.471Z,80.85
2018-10-11T06:12:19.522Z,80.96
2018-10-11T06:13:19.481Z,80.72
2018-10-11T06:14:19.471Z,80.72
2018-10-11T06:15:19.461Z,81
2018-10-11T06:16:19.477Z,81.14
2018-10-11T06:17:19.529Z,81.16
2018-10-11T06:18:19.603Z,81.16
2018-10-11T06:19:19.458Z,80.97
2018-10-11T06:20:19.693Z,81.12
2018-10-11T06:21:19.556Z,81.18
2018-10-11T06:22:19.616Z,80.95
2018-10-11T06:23:19.647Z,80.76
2018-10-11T06:24:19.643Z,80.78
2018-10-11T06:25:19.993Z,80.71
2018-10-11T06:26:19.837Z,81.01
2018-10-11T06:27:19.588Z,80.58
2018-10-11T06:28:19.459Z,80.48
2018-10-11T06:29:19.461Z,80.26
2018-10-11T06:30:19.824Z,80.26
2018-10-11T06:31:19.474Z,81
2018-10-11T06:32:19.669Z,80.61
2018-10-11T06:33:19.565Z,80.41
2018-10-11T06:34:19.448Z,80.61
2018-10-11T06:35:19.519Z,81.19
2018-10-11T06:36:19.539Z,81.54
2018-10-11T06:37:19.558Z,81.89
2018-10-11T06:38:19.446Z,82.14
2018-10-11T06:39:19.585Z,82.75
2018-10-11T06:40:19.730Z,83.55
2018-10-11T06:41:19.653Z,82.85
2018-10-11T06:42:19.609Z,82.95
2018-10-11T06:43:20.045Z,83.6
2018-10-11T06:44:19.593Z,83.4
2018-10-11T06:45:19.476Z,83.38
2018-10-11T06:46:19.522Z,83.27
2018-10-11T06:47:19.771Z,82.75
2018-10-11T06:48:19.542Z,82.97
2018-10-11T06:49:20.324Z,83
2018-10-11T06:50:19.555Z,82.75
2018-10-11T06:51:19.567Z,83.07
2018-10-11T06:52:19.481Z,82.55
2018-10-11T06:53:19.715Z,82.69
2018-10-11T06:54:19.436Z,82.6
2018-10-11T06:55:19.485Z,82.76
2018-10-11T06:56:19.435Z,82.72
2018-10-11T06:57:19.517Z,82.76
2018-10-11T06:58:19.483Z,82.66
2018-10-11T06:59:19.401Z,82.24
2018-10-11T07:00:19.489Z,82.84
2018-10-11T07:01:19.768Z,82.69
2018-10-11T07:02:19.535Z,83.06
2018-10-11T07:03:19.414Z,83.07
2018-10-11T07:04:19.423Z,83.12
2018-10-11T07:05:19.453Z,82.84
2018-10-11T07:06:19.523Z,83.1
2018-10-11T07:07:19.449Z,83.45
2018-10-11T07:08:19.415Z,83.81
2018-10-11T07:09:19.545Z,84.08
2018-10-11T07:10:19.437Z,84.16
2018-10-11T07:11:19.431Z,83.89
2018-10-11T07:12:20.167Z,83.71
2018-10-11T07:13:19.524Z,83.66
2018-10-11T07:14:19.439Z,83.63
2018-10-11T07:15:19.547Z,83.42
2018-10-11T07:16:19.492Z,83.19
2018-10-11T07:17:19.509Z,83.06
2018-10-11T07:18:19.482Z,82.99
2018-10-11T07:19:19.549Z,82.94
2018-10-11T07:20:20.034Z,83.05
2018-10-11T07:21:19.533Z,83.17
2018-10-11T07:22:19.429Z,82.76
2018-10-11T07:23:19.371Z,82.79
2018-10-11T07:24:19.356Z,83.15
2018-10-11T07:25:19.395Z,83.22
2018-10-11T07:26:19.361Z,82.84
2018-10-11T07:37:20.000Z,82.15
2018-10-11T07:38:19.375Z,82.17
2018-10-11T07:39:19.404Z,81.99
2018-10-11T07:40:19.447Z,82.08
2018-10-11T07:41:19.346Z,81.69
2018-10-11T07:42:19.484Z,81.77
2018-10-11T07:43:20.206Z,82.27
2018-10-11T07:44:19.523Z,82.11
2018-10-11T07:45:19.355Z,82.57
2018-10-11T07:46:19.376Z,82.63
2018-10-11T07:47:19.535Z,82.67
2018-10-11T07:48:19.458Z,82.83
2018-10-11T07:49:19.577Z,82.55
2018-10-11T07:50:19.379Z,82.05
2018-10-11T07:51:20.181Z,82.26
2018-10-11T07:52:19.477Z,81.97
2018-10-11T07:53:19.483Z,82.2
2018-10-11T07:54:19.347Z,81.94
2018-10-11T07:55:19.346Z,82.01
2018-10-11T07:56:19.392Z,82.2
2018-10-11T07:57:19.646Z,81.77
2018-10-11T07:58:44.510Z,82.2
2018-10-11T07:59:44.301Z,81.88
2018-10-11T08:00:44.038Z,81.99
2018-10-11T08:01:44.239Z,82.14
2018-10-11T08:02:44.232Z,81.98
2018-10-11T08:03:44.306Z,82.21
2018-10-11T08:04:44.051Z,82.24
2018-10-11T08:05:44.149Z,82.04
2018-10-11T08:06:44.464Z,82.05
2018-10-11T08:07:44.167Z,81.63
2018-10-11T08:08:44.117Z,81.87
2018-10-11T08:09:44.308Z,81.75
2018-10-11T08:10:44.219Z,82.08
2018-10-11T08:11:44.131Z,81.91
2018-10-11T08:12:44.342Z,81.78
2018-10-11T08:13:44.094Z,81.81
2018-10-11T08:14:44.351Z,82.02
2018-10-11T08:15:44.569Z,82.22
2018-10-11T08:16:44.380Z,81.81
2018-10-11T08:17:44.421Z,81.85
2018-10-11T08:18:44.172Z,81.72
2018-10-11T08:19:44.096Z,81.88
2018-10-11T08:20:44.001Z,81.8
2018-10-11T08:21:44.220Z,81.96
2018-10-11T08:22:44.401Z,82.03
2018-10-11T08:23:44.220Z,82.02
2018-10-11T08:24:44.245Z,82.16
2018-10-11T08:25:44.443Z,81.92
2018-10-11T08:26:44.268Z,81.7
2018-10-11T08:27:44.244Z,81.66
2018-10-11T08:28:44.137Z,81.78
2018-10-11T08:29:44.006Z,81.97
2018-10-11T08:30:44.026Z,82.18
2018-10-11T08:31:44.237Z,82.01
2018-10-11T08:32:45.269Z,82.19
2018-10-11T08:33:44.103Z,82.21
2018-10-11T08:34:44.048Z,82.25
2018-10-11T08:35:44.109Z,82.24
2018-10-11T08:36:44.090Z,82.47
2018-10-11T08:37:44.216Z,82.46
2018-10-11T08:38:44.360Z,82.66
2018-10-11T08:39:44.097Z,82.51
2018-10-11T08:40:44.332Z,82.53
2018-10-11T08:41:44.181Z,82.4
2018-10-11T08:42:44.056Z,81.76
2018-10-11T08:43:44.401Z,81.6
2018-10-11T08:44:44.051Z,81.92
2018-10-11T08:45:44.041Z,81.9
2018-10-11T08:46:44.021Z,81.42
2018-10-11T08:47:44.145Z,80.96
2018-10-11T08:48:44.006Z,80.84
2018-10-11T08:49:44.135Z,80.73
2018-10-11T08:50:43.982Z,81.12
2018-10-11T08:51:43.994Z,81.12
2018-10-11T08:52:44.465Z,81.41
2018-10-11T08:53:44.155Z,81.2
2018-10-11T08:54:43.970Z,81.52
2018-10-11T08:55:44.098Z,81.38
2018-10-11T08:56:44.075Z,81.33
2018-10-11T08:57:44.123Z,80.89
2018-10-11T08:58:44.110Z,80.83
2018-10-11T08:59:44.076Z,81.01
2018-10-11T09:00:44.091Z,81.15
2018-10-11T09:01:44.144Z,81.12
2018-10-11T09:02:44.002Z,80.79
2018-10-11T09:03:44.150Z,80.67
2018-10-11T09:04:43.983Z,80.91
2018-10-11T09:05:43.957Z,80.92
2018-10-11T09:06:44.283Z,80.92
2018-10-11T09:07:45.558Z,80.77
2018-10-11T09:09:43.968Z,80.4
2018-10-11T09:10:44.741Z,80.33
2018-10-11T09:11:45.535Z,80.52
2018-10-11T09:12:44.556Z,80.6
2018-10-11T09:13:44.099Z,80.41
2018-10-11T09:14:44.220Z,80.58
2018-10-11T09:15:44.489Z,80.43
2018-10-11T09:16:45.807Z,80.24
2018-10-11T09:17:44.005Z,80.13
2018-10-11T09:18:45.110Z,79.98
2018-10-11T09:19:44.731Z,79.81
2018-10-11T09:20:44.208Z,80.02
2018-10-11T09:21:44.069Z,79.92
2018-10-11T09:22:44.955Z,79.76
2018-10-11T09:23:44.059Z,79.44
2018-10-11T09:24:44.239Z,79.37
2018-10-11T09:25:43.992Z,79.02
2018-10-11T09:26:44.179Z,78.84
2018-10-11T09:27:43.948Z,78.92
2018-10-11T09:28:44.014Z,78.47
2018-10-11T09:29:44.073Z,78.45
2018-10-11T09:30:44.042Z,78.55
2018-10-11T09:31:43.979Z,78.44
2018-10-11T09:32:43.942Z,78.13
2018-10-11T09:33:44.082Z,78.31
2018-10-11T09:34:44.172Z,78.25
2018-10-11T09:35:43.898Z,78
2018-10-11T09:36:44.287Z,77.43
2018-10-11T09:37:43.974Z,77.49
2018-10-11T09:38:44.161Z,77.27
2018-10-11T09:39:43.897Z,77.43
2018-10-11T09:40:43.969Z,77.56
2018-10-11T09:41:44.264Z,77.02
2018-10-11T09:42:44.040Z,76.97
2018-10-11T09:43:43.891Z,76.35
2018-10-11T09:44:44.057Z,76.59
2018-10-11T09:45:44.008Z,76.29
2018-10-11T09:46:43.973Z,76.43
2018-10-11T09:47:43.854Z,76.32
2018-10-11T09:48:43.987Z,76.15
2018-10-11T09:49:44.170Z,76.01
2018-10-11T09:50:43.981Z,75.72
2018-10-11T09:51:43.978Z,75.54
2018-10-11T09:52:44.025Z,75.88
2018-10-11T09:53:44.134Z,75.37
2018-10-11T09:54:43.940Z,75.08
2018-10-11T09:55:43.978Z,75.33
2018-10-11T09:56:44.120Z,75.27
2018-10-11T09:57:43.864Z,74.83
2018-10-11T09:58:43.887Z,74.59
2018-10-11T09:59:43.939Z,74.67
2018-10-11T10:00:43.977Z,74.36
2018-10-11T10:01:43.919Z,74.63
2018-10-11T10:02:43.985Z,74.79
2018-10-11T10:03:44.172Z,74.5
2018-10-11T10:04:43.976Z,74.05
2018-10-11T10:05:43.899Z,74.03
2018-10-11T10:06:43.921Z,74.27
2018-10-11T10:07:44.311Z,74.73
2018-10-11T10:08:44.202Z,74.3
2018-10-11T10:09:43.943Z,74.6
2018-10-11T10:10:43.992Z,74.4
2018-10-11T10:11:43.917Z,74.06
2018-10-11T10:12:43.916Z,74.29
2018-10-11T10:13:44.245Z,73.92
2018-10-11T10:14:43.968Z,73.7
2018-10-11T10:15:44.010Z,73.69
2018-10-11T10:16:43.952Z,73.71
2018-10-11T10:17:43.915Z,73.83
2018-10-11T10:18:43.925Z,74.04
2018-10-11T10:19:43.906Z,73.55
2018-10-11T10:20:44.284Z,73.22
2018-10-11T10:21:44.000Z,73.12
2018-10-11T10:22:43.876Z,73.83
2018-10-11T10:23:43.836Z,73.48
2018-10-11T10:24:43.854Z,73.57
2018-10-11T10:25:46.757Z,72.74
2018-10-11T10:26:43.992Z,72.53
2018-10-11T10:27:43.886Z,72.13
2018-10-11T10:28:43.866Z,72.22
2018-10-11T10:29:44.067Z,72.47
2018-10-11T10:30:43.971Z,72.54
2018-10-11T10:31:44.869Z,71.76
2018-10-11T10:32:45.016Z,71.94
2018-10-11T10:33:43.877Z,70.95
2018-10-11T10:34:43.937Z,70.95
2018-10-11T10:35:43.825Z,71.57
2018-10-11T10:36:43.828Z,71.94
2018-10-11T10:37:44.166Z,71.11
2018-10-11T10:38:43.993Z,70.86
2018-10-11T10:39:43.981Z,70.75
2018-10-11T10:40:43.980Z,71
2018-10-11T10:41:44.298Z,71
2018-10-11T10:42:44.129Z,70.71
2018-10-11T10:43:43.926Z,71.04
2018-10-11T10:44:43.964Z,70.81
2018-10-11T10:45:43.951Z,70.47
2018-10-11T10:46:44.056Z,70.56
2018-10-11T10:47:43.917Z,70.32
2018-10-11T10:48:44.408Z,70.28
2018-10-11T10:49:44.278Z,70.22
2018-10-11T10:50:43.864Z,70.9
2018-10-11T10:51:43.860Z,70.98
2018-10-11T10:52:44.012Z,71.36
2018-10-11T10:53:43.859Z,71.34
2018-10-11T10:54:43.848Z,70.83
2018-10-11T10:55:43.905Z,70.97
2018-10-11T10:56:44.328Z,70.26
2018-10-11T10:57:43.957Z,70.24
2018-10-11T10:58:44.012Z,70.13
2018-10-11T10:59:43.954Z,69.97
2018-10-11T11:00:43.861Z,69.71
2018-10-11T11:01:43.939Z,69.7
2018-10-11T11:02:44.112Z,69.68
2018-10-11T11:03:44.173Z,70.08
2018-10-11T11:04:43.935Z,70.16
2018-10-11T11:05:43.885Z,69.05
2018-10-11T11:06:44.019Z,69
2018-10-11T11:07:43.953Z,69.01
2018-10-11T11:08:43.993Z,68.91
2018-10-11T11:09:44.202Z,69.48
2018-10-11T11:10:43.823Z,68.99
2018-10-11T11:11:44.215Z,69.42
2018-10-11T11:12:46.977Z,69.09
2018-10-11T11:13:44.235Z,69.24
2018-10-11T11:14:43.934Z,69.29
2018-10-11T11:15:43.806Z,69.22
2018-10-11T11:16:43.853Z,69.7
2018-10-11T11:17:44.147Z,69.39
2018-10-11T11:18:43.973Z,69.88
2018-10-11T11:19:44.339Z,68.66
2018-10-11T11:20:43.966Z,68.37
2018-10-11T11:21:44.008Z,68.62
2018-10-11T11:22:43.804Z,68.7
2018-10-11T11:23:43.901Z,68.84
2018-10-11T11:24:43.914Z,68.54
2018-10-11T11:25:43.753Z,68.35
2018-10-11T11:26:44.019Z,68.5
2018-10-11T11:27:44.124Z,68.33
2018-10-11T11:28:43.925Z,67.33
2018-10-11T11:29:43.832Z,67.47
2018-10-11T11:30:44.044Z,67.81
2018-10-11T11:31:44.167Z,67.4
2018-10-11T11:32:44.144Z,66.83
2018-10-11T11:33:44.064Z,66.59
2018-10-11T11:34:43.782Z,66.33
2018-10-11T11:35:43.816Z,66.68
2018-10-11T11:36:43.983Z,66.8
2018-10-11T11:37:43.765Z,66.5
2018-10-11T11:38:43.895Z,66.11
2018-10-11T11:39:43.878Z,65.88
2018-10-11T11:40:43.829Z,65.75
2018-10-11T11:41:43.759Z,65.8
2018-10-11T11:42:43.775Z,65.94
2018-10-11T11:43:43.752Z,65.97
2018-10-11T11:44:43.751Z,65.95
2018-10-11T11:45:43.859Z,66.17
2018-10-11T11:46:44.254Z,65.74
2018-10-11T11:47:43.752Z,66.42
2018-10-11T11:48:43.728Z,65.95
2018-10-11T11:49:43.738Z,66.27
2018-10-11T11:50:43.844Z,66.17
2018-10-11T11:51:43.810Z,65.81
2018-10-11T11:52:43.756Z,66.05
2018-10-11T11:53:43.745Z,66.3
2018-10-11T11:54:44.103Z,66.02
2018-10-11T11:55:43.752Z,66.2
2018-10-11T11:56:43.716Z,66.01
2018-10-11T11:57:43.923Z,66.11
2018-10-11T11:58:44.068Z,66.01
2018-10-11T11:59:44.041Z,65.98
2018-10-11T12:00:43.737Z,66.59
2018-10-11T12:01:43.782Z,66.52
2018-10-11T12:02:43.838Z,66.37
2018-10-11T12:03:43.876Z,65.9
2018-10-11T12:04:43.926Z,65.71
2018-10-11T12:05:43.742Z,65.79
2018-10-11T12:06:43.845Z,66.01
2018-10-11T12:07:43.875Z,66.25
2018-10-11T12:08:43.999Z,66.42
2018-10-11T12:09:43.808Z,66.11
2018-10-11T12:10:44.037Z,66.28
2018-10-11T12:11:44.017Z,66.2
2018-10-11T12:12:43.727Z,66.33
2018-10-11T12:13:43.754Z,66.26
2018-10-11T12:14:43.687Z,65.61
2018-10-11T12:15:43.762Z,65.76
2018-10-11T12:16:43.950Z,65.2
2018-10-11T12:17:43.805Z,64.95
2018-10-11T12:18:43.703Z,65.3
2018-10-11T12:19:43.692Z,65.56
2018-10-11T12:20:43.988Z,65.51
2018-10-11T12:21:44.090Z,65.83
2018-10-11T12:22:43.763Z,65.72
2018-10-11T12:23:43.899Z,65.55
2018-10-11T12:24:43.716Z,65.92
2018-10-11T12:25:43.743Z,65.61
2018-10-11T12:26:43.927Z,65.5
2018-10-11T12:27:44.029Z,65.41
2018-10-11T12:28:44.013Z,65.71
2018-10-11T12:29:43.725Z,65.7
2018-10-11T12:30:44.005Z,65.96
2018-10-11T12:31:43.748Z,66.28
2018-10-11T12:32:43.861Z,66.07
2018-10-11T12:33:43.973Z,65.33
2018-10-11T12:34:43.704Z,65.46
2018-10-11T12:35:43.748Z,65.68
2018-10-11T12:36:43.711Z,65.23
2018-10-11T12:37:43.677Z,65.85
2018-10-11T12:38:43.995Z,65.68
2018-10-11T12:39:43.867Z,65.55
2018-10-11T12:40:43.775Z,65.44
2018-10-11T12:41:43.804Z,65.05
2018-10-11T12:42:43.670Z,65.42
2018-10-11T12:43:44.138Z,64.94
2018-10-11T12:44:43.742Z,64.9
2018-10-11T12:45:44.053Z,65.08
2018-10-11T12:46:43.873Z,65.03
2018-10-11T12:47:44.058Z,65.35
2018-10-11T12:48:43.717Z,65.3
2018-10-11T12:49:46.615Z,65.17
2018-10-11T12:50:43.682Z,65.12
2018-10-11T12:51:45.042Z,64.82
2018-10-11T12:52:43.779Z,64.54
2018-10-11T12:53:47.484Z,65.01
2018-10-11T12:54:44.024Z,65.18
2018-10-11T12:55:43.663Z,65.21
2018-10-11T12:56:44.297Z,64.82
2018-10-11T12:57:43.790Z,65.23
2018-10-11T12:58:43.741Z,65.5
2018-10-11T12:59:43.642Z,65
2018-10-11T13:00:43.690Z,65.18
2018-10-11T13:01:43.964Z,65.15
2018-10-11T13:02:43.990Z,65.45
2018-10-11T13:03:44.024Z,65.14
2018-10-11T13:04:43.657Z,64.9
2018-10-11T13:05:43.627Z,65.01
2018-10-11T13:06:43.671Z,65.12
2018-10-11T13:07:43.660Z,65.4